createdAt,value
2019-03-28T00:01:48.761Z,15.97
2019-03-28T00:04:14.923Z,13.33
2019-03-28T00:06:41.450Z,17.63
2019-03-28T00:09:07.930Z,18.70
2019-03-28T00:11:34.268Z,14.93
2019-03-28T00:14:00.468Z,15.57
2019-03-28T00:16:26.622Z,16.37
2019-03-28T00:18:53.219Z,12.73
2019-03-28T00:21:19.532Z,13.43
2019-03-28T00:23:59.424Z,14.70
2019-03-28T00:26:30.460Z,13.47
2019-03-28T00:28:53.777Z,16.70
2019-03-28T00:31:20.052Z,16.77
2019-03-28T00:33:46.244Z,17.90
2019-03-28T00:36:12.398Z,13.37
2019-03-28T00:38:38.571Z,14.50
2019-03-28T00:41:04.767Z,19.63
2019-03-28T00:43:30.933Z,15.23
2019-03-28T00:45:57.091Z,17.20
2019-03-28T00:48:23.284Z,16.57
2019-03-28T00:50:49.439Z,16.73
2019-03-28T00:53:15.599Z,15.37
2019-03-28T00:55:41.792Z,14.13
2019-03-28T00:58:07.945Z,13.53
2019-03-28T01:00:34.218Z,15.23
2019-03-28T01:03:00.417Z,14.77
2019-03-28T01:05:26.566Z,18.93
2019-03-28T01:07:52.750Z,10.83
2019-03-28T01:10:18.950Z,10.60
2019-03-28T01:12:45.209Z,12.83
2019-03-28T01:15:11.369Z,14.30
2019-03-28T01:17:37.660Z,15.83
2019-03-28T01:20:05.644Z,13.00
2019-03-28T01:22:31.843Z,11.33
2019-03-28T01:24:58.051Z,8.80
2019-03-28T01:27:24.191Z,9.63
2019-03-28T01:29:50.443Z,12.80
2019-03-28T01:32:16.645Z,9.00
2019-03-28T01:34:42.808Z,8.87
2019-03-28T01:37:08.969Z,10.60
2019-03-28T01:39:35.311Z,12.07
2019-03-28T01:42:01.626Z,11.60
2019-03-28T01:44:27.786Z,12.67
2019-03-28T01:46:53.997Z,11.40
2019-03-28T01:49:20.255Z,13.83
2019-03-28T01:51:46.415Z,15.13
2019-03-28T01:54:12.610Z,10.83
2019-03-28T01:56:38.757Z,16.53
2019-03-28T01:59:04.908Z,14.57
2019-03-28T02:01:31.101Z,11.73
2019-03-28T02:03:57.262Z,10.20
2019-03-28T02:06:23.416Z,11.17
2019-03-28T02:08:49.612Z,10.77
2019-03-28T02:11:15.879Z,9.07
2019-03-28T02:13:42.042Z,12.17
2019-03-28T02:16:08.240Z,11.03
2019-03-28T02:18:34.397Z,11.03
2019-03-28T02:21:01.255Z,10.03
2019-03-28T02:23:27.866Z,9.83
2019-03-28T02:25:54.123Z,11.67
2019-03-28T02:28:20.393Z,7.57
2019-03-28T02:30:46.596Z,11.50
2019-03-28T02:33:12.744Z,9.23
2019-03-28T02:35:38.904Z,6.67
2019-03-28T02:38:05.092Z,7.37
2019-03-28T02:40:31.244Z,6.23
2019-03-28T02:42:57.396Z,8.40
2019-03-28T02:45:23.722Z,5.97
2019-03-28T02:47:49.853Z,7.53
2019-03-28T02:50:16.133Z,9.13
2019-03-28T02:52:42.429Z,9.33
2019-03-28T02:55:08.584Z,8.40
2019-03-28T02:57:41.442Z,7.90
2019-03-28T03:00:05.448Z,6.10
2019-03-28T03:02:32.361Z,7.93
2019-03-28T03:04:58.768Z,4.97
2019-03-28T03:07:25.367Z,6.90
2019-03-28T03:09:51.810Z,7.73
2019-03-28T03:12:18.095Z,8.63
2019-03-28T03:14:44.283Z,7.70
2019-03-28T03:17:10.543Z,7.47
2019-03-28T03:19:36.696Z,10.93
2019-03-28T03:22:03.197Z,6.27
2019-03-28T03:24:29.588Z,12.17
2019-03-28T03:26:55.743Z,7.83
2019-03-28T03:29:21.942Z,10.90
2019-03-28T03:31:48.092Z,10.17
2019-03-28T03:34:14.364Z,10.80
2019-03-28T03:36:40.541Z,10.43
2019-03-28T03:39:07.618Z,7.73
2019-03-28T03:41:33.791Z,10.03
2019-03-28T03:44:00.081Z,6.83
2019-03-28T03:46:26.277Z,6.67
2019-03-28T03:48:52.586Z,10.37
2019-03-28T03:51:18.883Z,7.10
2019-03-28T03:53:45.054Z,8.67
2019-03-28T03:56:11.296Z,10.00
2019-03-28T03:58:37.486Z,7.13
2019-03-28T04:01:03.650Z,8.13
2019-03-28T04:03:29.822Z,9.27
2019-03-28T04:05:55.980Z,6.50
2019-03-28T04:08:22.149Z,5.87
2019-03-28T04:10:48.305Z,8.10
2019-03-28T04:13:14.595Z,9.80
2019-03-28T04:15:40.753Z,9.43
2019-03-28T04:18:06.909Z,5.87
2019-03-28T04:20:33.098Z,5.60
2019-03-28T04:22:59.246Z,8.90
2019-03-28T04:25:25.447Z,5.07
2019-03-28T04:27:51.629Z,5.53
2019-03-28T04:30:17.786Z,4.97
2019-03-28T04:32:44.040Z,6.70
2019-03-28T04:35:10.246Z,3.97
2019-03-28T04:37:36.493Z,6.37
2019-03-28T04:40:06.148Z,3.80
2019-03-28T04:42:32.336Z,5.07
2019-03-28T04:44:58.596Z,4.07
2019-03-28T04:47:24.763Z,4.87
2019-03-28T04:49:50.959Z,8.43
2019-03-28T04:52:17.234Z,6.67
2019-03-28T04:54:43.393Z,7.00
2019-03-28T04:57:09.627Z,8.00
2019-03-28T04:59:35.772Z,11.03
2019-03-28T05:02:03.704Z,5.77
2019-03-28T05:04:30.119Z,9.10
2019-03-28T05:06:56.381Z,11.00
2019-03-28T05:09:22.641Z,4.60
2019-03-28T05:11:48.830Z,7.40
2019-03-28T05:14:14.981Z,9.43
2019-03-28T05:16:41.143Z,10.53
2019-03-28T05:19:07.222Z,4.97
2019-03-28T05:21:33.387Z,9.00
2019-03-28T05:23:59.547Z,8.23
2019-03-28T05:26:26.771Z,5.20
2019-03-28T05:28:57.824Z,5.03
2019-03-28T05:31:21.097Z,5.07
2019-03-28T05:33:47.289Z,7.57
2019-03-28T05:36:13.450Z,9.60
2019-03-28T05:38:39.612Z,10.03
2019-03-28T05:41:05.809Z,5.77
2019-03-28T05:43:31.968Z,7.43
2019-03-28T05:45:58.126Z,4.93
2019-03-28T05:48:24.325Z,5.20
2019-03-28T05:50:50.489Z,5.20
2019-03-28T05:53:16.654Z,5.80
2019-03-28T05:55:42.867Z,6.93
2019-03-28T05:58:09.691Z,4.33
2019-03-28T06:00:38.941Z,4.30
2019-03-28T06:03:04.243Z,3.00
2019-03-28T06:05:30.410Z,4.17
2019-03-28T06:07:56.787Z,3.27
2019-03-28T06:10:22.986Z,3.23
2019-03-28T06:12:49.138Z,3.70
2019-03-28T06:15:15.296Z,4.87
2019-03-28T06:17:41.495Z,2.67
2019-03-28T06:20:08.932Z,3.73
2019-03-28T06:22:35.317Z,3.77
2019-03-28T06:25:05.553Z,5.23
2019-03-28T06:27:32.014Z,4.10
2019-03-28T06:29:58.214Z,3.47
2019-03-28T06:32:24.404Z,3.20
2019-03-28T06:34:50.565Z,5.80
2019-03-28T06:37:17.100Z,10.13
2019-03-28T06:39:43.363Z,6.10
2019-03-28T06:42:09.816Z,7.13
2019-03-28T06:44:35.956Z,5.67
2019-03-28T06:47:02.168Z,5.00
2019-03-28T06:49:28.321Z,10.53
2019-03-28T06:51:54.486Z,5.67
2019-03-28T06:54:20.675Z,2.93
2019-03-28T06:56:46.842Z,3.07
2019-03-28T06:59:13.008Z,6.23
2019-03-28T07:01:39.311Z,2.93
2019-03-28T07:04:05.475Z,10.60
2019-03-28T07:06:31.648Z,6.47
2019-03-28T07:08:57.847Z,3.03
2019-03-28T07:11:24.460Z,4.13
2019-03-28T07:13:50.623Z,4.57
2019-03-28T07:16:16.813Z,3.10
2019-03-28T07:18:42.970Z,3.40
2019-03-28T07:21:09.144Z,4.27
2019-03-28T07:23:35.449Z,3.30
2019-03-28T07:26:01.611Z,3.03
2019-03-28T07:28:28.802Z,3.80
2019-03-28T07:30:54.997Z,2.70
2019-03-28T07:33:21.158Z,3.77
2019-03-28T07:35:47.340Z,4.10
2019-03-28T07:38:13.649Z,3.60
2019-03-28T07:40:39.818Z,2.93
2019-03-28T07:43:05.990Z,3.47
2019-03-28T07:45:34.476Z,2.20
2019-03-28T07:48:00.348Z,3.97
2019-03-28T07:50:26.531Z,2.23
2019-03-28T07:52:53.643Z,3.00
2019-03-28T07:55:20.015Z,2.67
2019-03-28T07:57:46.170Z,5.27
2019-03-28T08:00:12.861Z,8.13
2019-03-28T08:02:39.011Z,1.70
2019-03-28T08:05:08.308Z,2.37
2019-03-28T08:07:44.232Z,1.87
2019-03-28T08:10:04.872Z,3.10
2019-03-28T08:12:31.147Z,2.00
2019-03-28T08:14:57.342Z,2.37
2019-03-28T08:17:23.496Z,2.60
2019-03-28T08:19:49.653Z,3.97
2019-03-28T08:22:15.842Z,1.90
2019-03-28T08:24:41.993Z,2.43
2019-03-28T08:27:08.147Z,4.73
2019-03-28T08:29:34.496Z,3.50
2019-03-28T08:32:00.957Z,3.60
2019-03-28T08:34:27.120Z,6.33
2019-03-28T08:36:53.430Z,2.53
2019-03-28T08:39:19.984Z,3.80
2019-03-28T08:41:48.679Z,2.30
2019-03-28T08:44:14.336Z,2.70
2019-03-28T08:46:40.493Z,4.07
2019-03-28T08:49:06.637Z,4.10
2019-03-28T08:51:32.832Z,3.30
2019-03-28T08:53:58.978Z,2.20
2019-03-28T08:56:25.230Z,2.90
2019-03-28T08:58:51.416Z,3.57
2019-03-28T09:04:02.492Z,3.40
2019-03-28T09:06:28.751Z,3.20
2019-03-28T09:08:55.269Z,3.70
2019-03-28T09:11:21.699Z,5.87
2019-03-28T09:16:32.164Z,4.60
2019-03-28T09:21:42.621Z,5.33
2019-03-28T09:24:08.779Z,3.83
2019-03-28T09:26:34.956Z,4.57
2019-03-28T09:29:01.131Z,2.40
2019-03-28T09:31:27.383Z,5.80
2019-03-28T09:33:53.652Z,2.70
2019-03-28T09:36:19.844Z,4.27
2019-03-28T09:38:46.501Z,3.80
2019-03-28T09:41:12.669Z,6.53
2019-03-28T09:43:38.843Z,3.90
2019-03-28T09:46:04.996Z,3.13
2019-03-28T09:48:31.170Z,1.80
2019-03-28T09:50:57.349Z,2.07
2019-03-28T09:53:23.507Z,2.13
2019-03-28T09:55:49.666Z,5.43
2019-03-28T09:58:15.855Z,3.70
2019-03-28T10:00:42.112Z,2.43
2019-03-28T10:03:08.268Z,2.90
2019-03-28T10:05:37.743Z,3.03
2019-03-28T10:08:02.620Z,3.77
2019-03-28T10:10:28.880Z,2.97
2019-03-28T10:12:55.174Z,2.10
2019-03-28T10:15:21.326Z,2.33
2019-03-28T10:17:47.581Z,3.43
2019-03-28T10:20:13.865Z,4.33
2019-03-28T10:22:40.023Z,2.27
2019-03-28T10:25:06.581Z,3.43
2019-03-28T10:27:32.767Z,3.10
2019-03-28T10:29:58.938Z,4.53
2019-03-28T10:32:25.234Z,4.67
2019-03-28T10:34:51.545Z,3.53
2019-03-28T10:37:17.696Z,3.90
2019-03-28T10:39:43.952Z,4.77
2019-03-28T10:42:10.251Z,2.03
2019-03-28T10:44:36.402Z,3.40
2019-03-28T10:47:04.892Z,3.67
2019-03-28T10:49:30.849Z,3.27
2019-03-28T10:51:57.355Z,3.23
2019-03-28T10:54:25.698Z,2.80
2019-03-28T10:56:52.578Z,2.50
2019-03-28T10:59:23.637Z,3.90
2019-03-28T11:01:50.507Z,3.10
2019-03-28T11:04:15.843Z,4.83
2019-03-28T11:06:42.005Z,2.40
2019-03-28T11:09:08.597Z,3.83
2019-03-28T11:11:35.160Z,2.93
2019-03-28T11:14:01.321Z,3.23
2019-03-28T11:16:27.480Z,4.73
2019-03-28T11:18:53.668Z,3.10
2019-03-28T11:21:19.815Z,3.03
2019-03-28T11:23:45.971Z,2.90
2019-03-28T11:26:12.153Z,6.90
2019-03-28T11:28:38.330Z,6.90
2019-03-28T11:31:04.459Z,5.27
2019-03-28T11:33:31.179Z,2.10
2019-03-28T11:35:57.337Z,1.93
2019-03-28T11:38:23.495Z,3.77
2019-03-28T11:40:49.783Z,3.47
2019-03-28T11:43:16.053Z,3.77
2019-03-28T11:45:42.298Z,4.00
2019-03-28T11:48:08.486Z,5.80
2019-03-28T11:50:34.659Z,3.70
2019-03-28T11:53:00.817Z,2.33
2019-03-28T11:55:27.009Z,3.50
2019-03-28T11:57:56.314Z,2.87
2019-03-28T12:00:21.325Z,1.47
2019-03-28T12:02:47.524Z,4.70
2019-03-28T12:05:13.682Z,2.93
2019-03-28T12:07:39.848Z,3.90
2019-03-28T12:10:08.153Z,3.00
2019-03-28T12:12:34.308Z,2.73
2019-03-28T12:15:00.485Z,3.87
2019-03-28T12:17:26.781Z,4.63
2019-03-28T12:19:52.945Z,2.90
2019-03-28T12:22:19.103Z,2.30
2019-03-28T12:24:45.398Z,2.20
2019-03-28T12:27:11.574Z,5.20
2019-03-28T12:29:37.724Z,4.60
2019-03-28T12:32:13.828Z,4.77
2019-03-28T12:34:32.116Z,3.27
2019-03-28T12:36:58.270Z,2.80
2019-03-28T12:39:24.484Z,3.97
2019-03-28T12:41:50.645Z,2.10
2019-03-28T12:44:16.796Z,2.57
2019-03-28T12:46:42.980Z,4.03
2019-03-28T12:49:09.135Z,2.23
2019-03-28T12:51:35.289Z,4.47
2019-03-28T12:54:02.596Z,2.40
2019-03-28T12:56:29.041Z,2.43
2019-03-28T12:58:55.195Z,4.67
2019-03-28T13:01:21.400Z,5.13
2019-03-28T13:03:47.564Z,3.47
2019-03-28T13:06:13.713Z,3.17
2019-03-28T13:08:40.000Z,3.03
2019-03-28T13:11:06.156Z,3.60
2019-03-28T13:13:32.311Z,4.20
2019-03-28T13:15:58.490Z,3.50
2019-03-28T13:18:24.647Z,1.90
2019-03-28T13:20:50.903Z,2.30
2019-03-28T13:23:17.089Z,2.53
2019-03-28T13:25:43.343Z,2.87
2019-03-28T13:28:09.511Z,2.57
2019-03-28T13:30:35.739Z,3.47
2019-03-28T13:33:01.954Z,5.83
2019-03-28T13:35:28.143Z,2.40
2019-03-28T13:37:54.327Z,3.93
2019-03-28T13:40:20.482Z,1.70
2019-03-28T13:42:46.637Z,2.33
2019-03-28T13:45:13.236Z,2.27
2019-03-28T13:47:39.386Z,4.20
2019-03-28T13:50:06.743Z,2.00
2019-03-28T13:52:32.928Z,2.73
2019-03-28T13:54:59.188Z,3.57
2019-03-28T13:57:25.349Z,2.20
2019-03-28T13:59:51.532Z,2.50
2019-03-28T14:02:17.699Z,4.27
2019-03-28T14:04:43.857Z,3.07
2019-03-28T14:07:10.041Z,3.90
2019-03-28T14:09:36.206Z,4.97
2019-03-28T14:12:02.362Z,5.93
2019-03-28T14:14:28.652Z,6.40
2019-03-28T14:16:54.910Z,4.03
2019-03-28T14:19:21.163Z,4.07
2019-03-28T14:21:47.469Z,2.97
2019-03-28T14:24:13.618Z,2.40
2019-03-28T14:26:39.784Z,4.10
2019-03-28T14:29:07.143Z,2.17
2019-03-28T14:31:33.735Z,2.40
2019-03-28T14:33:59.921Z,2.13
2019-03-28T14:36:26.207Z,2.43
2019-03-28T14:38:52.361Z,3.20
2019-03-28T14:41:18.509Z,5.10
2019-03-28T14:43:44.694Z,3.77
2019-03-28T14:46:10.856Z,2.47
2019-03-28T14:48:37.050Z,1.93
2019-03-28T14:51:03.433Z,2.87
2019-03-28T14:53:29.580Z,5.17
2019-03-28T14:55:56.116Z,3.10
2019-03-28T14:58:23.201Z,3.87
2019-03-28T15:00:51.251Z,3.60
2019-03-28T15:03:26.389Z,2.80
2019-03-28T15:05:45.684Z,2.47
2019-03-28T15:08:11.953Z,2.20
2019-03-28T15:10:38.532Z,2.07
2019-03-28T15:13:04.816Z,2.93
2019-03-28T15:15:31.076Z,5.63
2019-03-28T15:17:57.236Z,2.60
2019-03-28T15:20:23.415Z,2.93
2019-03-28T15:22:49.699Z,2.80
2019-03-28T15:25:15.826Z,2.93
2019-03-28T15:27:42.012Z,1.93
2019-03-28T15:30:08.464Z,2.50
2019-03-28T15:32:34.618Z,3.20
2019-03-28T15:35:00.807Z,3.63
2019-03-28T15:37:27.010Z,4.90
2019-03-28T15:39:53.167Z,3.37
2019-03-28T15:42:19.464Z,3.27
2019-03-28T15:44:45.622Z,3.57
2019-03-28T15:47:11.777Z,2.37
2019-03-28T15:49:37.951Z,2.70
2019-03-28T15:52:05.131Z,3.67
2019-03-28T15:54:31.682Z,3.33
2019-03-28T15:56:58.694Z,3.00
2019-03-28T15:59:25.256Z,4.10
2019-03-28T16:01:51.428Z,5.53
2019-03-28T16:04:17.623Z,12.37
2019-03-28T16:06:43.788Z,5.50
2019-03-28T16:09:09.958Z,4.23
2019-03-28T16:11:36.149Z,12.60
2019-03-28T16:14:02.305Z,11.13
2019-03-28T16:16:28.596Z,8.17
2019-03-28T16:18:54.843Z,10.33
2019-03-28T16:21:21.122Z,15.70
2019-03-28T16:23:47.266Z,14.03
2019-03-28T16:26:15.496Z,15.43
2019-03-28T16:28:41.660Z,16.03
2019-03-28T16:31:07.817Z,15.30
2019-03-28T16:33:34.032Z,18.80
2019-03-28T16:36:00.203Z,17.43
2019-03-28T16:38:26.384Z,24.90
2019-03-28T16:40:52.582Z,13.97
2019-03-28T16:43:18.740Z,19.83
2019-03-28T16:45:44.903Z,20.23
2019-03-28T16:48:11.083Z,21.07
2019-03-28T16:50:37.348Z,55.57
2019-03-28T16:53:03.545Z,46.33
2019-03-28T16:55:29.811Z,24.27
2019-03-28T16:57:55.968Z,19.70
2019-03-28T17:00:25.847Z,20.60
2019-03-28T17:02:52.035Z,23.27
2019-03-28T17:05:18.315Z,56.70
2019-03-28T17:07:46.019Z,31.43
2019-03-28T17:10:18.758Z,20.10
2019-03-28T17:12:44.915Z,21.60
2019-03-28T17:15:11.084Z,31.67
2019-03-28T17:17:38.489Z,38.50
2019-03-28T17:20:05.545Z,47.00
2019-03-28T17:22:31.697Z,29.47
2019-03-28T17:24:57.914Z,30.03
2019-03-28T17:27:24.081Z,32.07
2019-03-28T17:29:50.332Z,42.63
2019-03-28T17:32:16.613Z,41.30
2019-03-28T17:34:45.849Z,45.27
2019-03-28T17:37:10.943Z,34.47
2019-03-28T17:39:37.343Z,32.63
2019-03-28T17:42:06.214Z,30.83
2019-03-28T17:44:31.750Z,16.43
2019-03-28T17:46:58.092Z,37.83
2019-03-28T17:49:24.289Z,84.50
2019-03-28T17:51:50.444Z,135.73
2019-03-28T17:54:16.646Z,122.28
2019-03-28T17:56:42.810Z,43.27
2019-03-28T17:59:08.965Z,65.17
2019-03-28T18:01:35.297Z,56.70
2019-03-28T18:04:01.459Z,111.97
2019-03-28T18:06:27.725Z,135.83
2019-03-28T18:08:53.923Z,34.87
2019-03-28T18:11:20.317Z,27.77
2019-03-28T18:13:46.581Z,51.23
2019-03-28T18:16:12.878Z,59.27
2019-03-28T18:18:39.193Z,68.70
2019-03-28T18:21:05.492Z,108.63
2019-03-28T18:23:31.700Z,89.67
2019-03-28T18:25:57.868Z,162.70
2019-03-28T18:28:24.034Z,50.60
2019-03-28T18:30:50.239Z,148.93
2019-03-28T18:33:16.402Z,95.70
2019-03-28T18:35:42.691Z,82.07
2019-03-28T18:38:08.893Z,22.00
2019-03-28T18:40:35.096Z,18.83
2019-03-28T18:43:01.623Z,20.93
2019-03-28T18:45:28.053Z,23.67
2019-03-28T18:47:54.217Z,19.17
2019-03-28T18:50:20.380Z,24.77
2019-03-28T18:52:46.578Z,45.77
2019-03-28T18:55:14.045Z,60.60
2019-03-28T18:57:40.228Z,24.30
2019-03-28T19:00:07.336Z,19.63
2019-03-28T19:02:33.497Z,20.37
2019-03-28T19:04:59.673Z,40.30
2019-03-28T19:07:25.869Z,40.27
2019-03-28T19:09:52.034Z,23.30
2019-03-28T19:12:18.195Z,23.97
2019-03-28T19:14:46.251Z,43.90
2019-03-28T19:17:12.442Z,23.37
2019-03-28T19:19:39.765Z,21.50
2019-03-28T19:22:06.209Z,26.83
2019-03-28T19:24:32.390Z,75.43
2019-03-28T19:26:58.537Z,48.53
2019-03-28T19:29:24.719Z,79.53
2019-03-28T19:31:50.976Z,74.40
2019-03-28T19:34:17.140Z,31.20
2019-03-28T19:36:44.885Z,59.60
2019-03-28T19:39:15.012Z,27.63
2019-03-28T19:41:41.177Z,40.70
2019-03-28T19:44:07.358Z,25.97
2019-03-28T19:46:33.522Z,22.53
2019-03-28T19:48:59.863Z,22.40
2019-03-28T19:51:28.401Z,23.10
2019-03-28T19:53:54.140Z,15.37
2019-03-28T19:56:20.919Z,27.47
2019-03-28T19:58:47.195Z,21.53
2019-03-28T20:01:13.355Z,42.83
2019-03-28T20:03:39.514Z,32.93
2019-03-28T20:06:05.710Z,22.17
2019-03-28T20:08:31.861Z,18.17
2019-03-28T20:10:58.024Z,20.67
2019-03-28T20:13:24.243Z,13.83
2019-03-28T20:15:50.471Z,34.77
2019-03-28T20:18:16.731Z,17.57
2019-03-28T20:20:42.923Z,17.77
2019-03-28T20:23:09.093Z,13.70
2019-03-28T20:25:35.255Z,14.23
2019-03-28T20:28:01.444Z,19.93
2019-03-28T20:30:27.979Z,14.50
2019-03-28T20:32:54.367Z,23.37
2019-03-28T20:35:21.891Z,21.47
2019-03-28T20:37:48.226Z,30.23
2019-03-28T20:40:14.882Z,26.33
2019-03-28T20:42:41.144Z,20.40
2019-03-28T20:45:08.010Z,15.67
2019-03-28T20:47:34.168Z,21.70
2019-03-28T20:50:01.477Z,111.97
2019-03-28T20:52:27.924Z,24.20
2019-03-28T20:54:54.386Z,22.43
2019-03-28T20:57:20.579Z,12.97
2019-03-28T20:59:47.001Z,17.17
2019-03-28T21:02:13.405Z,19.20
2019-03-28T21:04:39.609Z,15.43
2019-03-28T21:07:05.777Z,14.67
2019-03-28T21:09:31.920Z,17.13
2019-03-28T21:11:58.385Z,10.90
2019-03-28T21:14:24.537Z,8.27
2019-03-28T21:16:53.196Z,11.97
2019-03-28T21:19:19.380Z,9.73
2019-03-28T21:21:45.550Z,7.23
2019-03-28T21:24:11.705Z,7.63
2019-03-28T21:26:37.890Z,11.03
2019-03-28T21:29:04.045Z,6.77
2019-03-28T21:31:30.206Z,11.83
2019-03-28T21:33:56.420Z,7.00
2019-03-28T21:36:29.719Z,5.63
2019-03-28T21:38:50.606Z,9.80
2019-03-28T21:41:16.800Z,6.17
2019-03-28T21:43:43.006Z,4.97
2019-03-28T21:46:09.265Z,5.53
2019-03-28T21:48:35.454Z,5.77
2019-03-28T21:51:01.620Z,7.47
2019-03-28T21:53:27.780Z,9.80
2019-03-28T21:55:56.474Z,5.70
2019-03-28T21:58:22.032Z,6.80
2019-03-28T22:00:48.194Z,6.93
2019-03-28T22:03:14.379Z,6.43
2019-03-28T22:05:40.637Z,6.43
2019-03-28T22:08:07.022Z,5.20
2019-03-28T22:10:33.208Z,6.23
2019-03-28T22:12:59.370Z,4.90
2019-03-28T22:15:25.619Z,4.33
2019-03-28T22:17:51.822Z,5.37
2019-03-28T22:20:18.223Z,5.53
2019-03-28T22:22:44.427Z,4.77
2019-03-28T22:25:10.707Z,7.07
2019-03-28T22:27:36.864Z,6.23
2019-03-28T22:30:24.609Z,6.13
2019-03-28T22:32:50.765Z,4.67
2019-03-28T22:35:17.030Z,6.40
2019-03-28T22:37:43.235Z,5.03
2019-03-28T22:40:11.964Z,9.03
2019-03-28T22:42:37.456Z,7.90
2019-03-28T22:45:07.347Z,5.70
2019-03-28T22:47:35.576Z,5.23
2019-03-28T22:50:01.567Z,5.67
2019-03-28T22:52:27.867Z,5.03
2019-03-28T22:54:54.027Z,6.07
2019-03-28T22:57:20.179Z,5.57
2019-03-28T22:59:46.385Z,5.90
2019-03-28T23:02:12.546Z,8.07
2019-03-28T23:04:39.036Z,4.57
2019-03-28T23:07:10.896Z,6.27
2019-03-28T23:09:33.270Z,5.93
2019-03-28T23:11:59.418Z,5.47
2019-03-28T23:14:25.639Z,8.43
2019-03-28T23:16:51.784Z,7.90
2019-03-28T23:19:17.949Z,8.63
2019-03-28T23:21:44.156Z,16.07
2019-03-28T23:24:10.307Z,12.00
2019-03-28T23:26:36.564Z,11.83
2019-03-28T23:29:02.759Z,9.07
2019-03-28T23:31:29.017Z,9.83
2019-03-28T23:33:55.263Z,9.50
2019-03-28T23:36:21.457Z,9.60
2019-03-28T23:38:47.615Z,9.03
2019-03-28T23:41:13.773Z,9.00
2019-03-28T23:43:39.955Z,6.53
2019-03-28T23:46:06.114Z,7.37
2019-03-28T23:48:32.272Z,7.87
2019-03-28T23:50:58.811Z,6.87
2019-03-28T23:53:25.222Z,9.73
2019-03-28T23:55:51.387Z,9.50
2019-03-28T23:58:17.580Z,11.00
